This is the latest recevied weather packets stored in our database for station/object KD5FHA. If no packets are shown the sender has not sent any weather packets the latest 10 day(s).
| Time | Temp. | Humidity | Pressure | Rain* | Wind** | Luminosity | Snow |
|---|---|---|---|---|---|---|---|
| 1778184691 | 22.22° C | 50% | 1016.8 hPa | 0 mm | - | 334 W/m² | - |
| 1778184386 | 22.22° C | 49% | 1017 hPa | 0 mm | - | 358 W/m² | - |
| 1778184083 | 22.22° C | 49% | 1017.2 hPa | 0 mm | - | 357 W/m² | - |
| 1778183780 | 22.22° C | 51% | 1017.2 hPa | 0 mm | - | 344 W/m² | - |
| 1778183477 | 22.78° C | 49% | 1017.3 hPa | 0 mm | - | 317 W/m² | - |
| 1778183174 | 22.78° C | 49% | 1017.3 hPa | 0 mm | - | 344 W/m² | - |
| 1778182869 | 22.22° C | 50% | 1017.3 hPa | 0 mm | - | 355 W/m² | - |
| 1778182567 | 22.22° C | 49% | 1017.5 hPa | 0 mm | - | 359 W/m² | - |
| 1778182263 | 22.78° C | 48% | 1017.6 hPa | 0 mm | - | 396 W/m² | - |
| 1778181960 | 22.78° C | 50% | 1017.8 hPa | 0 mm | - | 430 W/m² | - |
| 1778181657 | 22.22° C | 50% | 1018 hPa | 0 mm | - | 461 W/m² | - |
| 1778181352 | 21.67° C | 52% | 1018.1 hPa | 0 mm | - | 477 W/m² | - |
| 1778181049 | 21.67° C | 52% | 1018.2 hPa | 0 mm | - | 516 W/m² | - |
| 1778180747 | 22.22° C | 51% | 1018.2 hPa | 0 mm | - | 488 W/m² | - |
| 1778180445 | 22.78° C | 50% | 1018.5 hPa | 0 mm | - | 582 W/m² | - |
| 1778180143 | 22.78° C | 46% | 1018.5 hPa | 0 mm | - | 487 W/m² | - |
| 1778179839 | 22.78° C | 49% | 1018.4 hPa | 0 mm | - | 693 W/m² | - |
| 1778179538 | 22.22° C | 52% | 1018.2 hPa | 0 mm | - | 954 W/m² | - |
| 1778179235 | 22.78° C | 49% | 1018.2 hPa | 0 mm | - | 713 W/m² | - |
| 1778178931 | 21.67° C | 53% | 1018.3 hPa | 0 mm | - | 844 W/m² | - |
| 1778178628 | 21.11° C | 52% | 1018 hPa | 0 mm | - | 502 W/m² | - |
| 1778178325 | 21.11° C | 52% | 1018.1 hPa | 0 mm | - | 545 W/m² | - |
| 1778178020 | 21.11° C | 53% | 1018.1 hPa | 0 mm | - | 800 W/m² | - |
| 1778177718 | 21.11° C | 52% | 1018.2 hPa | 0 mm | - | 577 W/m² | - |
| 1778177414 | 21.11° C | 55% | 1018.4 hPa | 0 mm | - | 618 W/m² | - |
* Rain latest hour (hover to see other rain measurements)
** Current wind speed in m/s (hover to see current wind gust speed)